Ames, Oklahoma
Current Conditions -  °F | °C
As of 3:58 AM on Sunday 26 Oct 2014 (Local Time) from KEND Reporting Station
Clear Clear  
Wind Chill: 27°   Ceiling: Unl
Heat Index: 28°   Visibility: 10mi
Dew Point: 18°   Wind: 8mph
Humidity: 58%   Direction: 200°SSW
Pressure: 30.02"   Gusts: NA
Location:  36.25°N, 98.19°W
Report Text: KEND 260858Z AUTO 20007KT 10SM CLR 27/18 A3002 RMK AO2 SLP153 54000
Loading
Personal Weather Stations






























Interactive Weather Map
Tropical Storm Tracking
New forecast layout! Learn more

10-Day Weather Forecast

Advertisements
Track Severe Weather on mobile